PAUNPAMK

Guest
Details From PAUN - Unalakleet
To PAMK - ST MICHAEL
Flight Number -
Tags generated
Created
Modified
Stats Distance 43 nm / 80 km
Max Altitude 4,100 ft / 1,250 m
Waypoints 3
Social Downloads 1
Likes 0
Share

Download

Looking for another format? Having issues loading an existing format? Contact us
Advertisement - Login to hide

Notes

Basic altitude profile: - Ascent Rate: 700ft/min - Ascent Speed: 100kts - Cruise Altitude: 3000ft - Cruise Speed: 125kts - Descent Rate: 1500ft/min - Descent Speed: 125kts Options: - Use NATs: yes - Use PACOTS: yes - Use low airways: yes - Use high airways: yes

Route

PAUN CONFI PAMK

ID Type Via Altitude (ft/m) Position (lat/lon) Dist (leg/tot) Name
O PAUN APT - 0 / 0 63.88659 / -160.79693 - / 0 nm Unalakleet
CONFI FIX - 4,100 / 1,250 63.83524 / -161.21692 11 / 11 nm
O PAMK APT - 0 / 0 63.49005 / -162.11038 31 / 43 nm ST MICHAEL

Altitude Profile

Advertisement - Login to hide

PAUN

Details ICAO PAUN (UNK)
Name Unalakleet
Region USA (Alaska)
Timezone America/Anchorage (UTC-8.0)
Stats Elevation 27 ft / 8 m (AMSL)
Location 63.886600° -160.797000°
Runways 2
Magnetic Variation 11.180° E

METAR

PAUN 221956Z AUTO 10012KT 10SM CLR M01/M05 A3041 RMK AO2 SLP303 T10111050 FZRANO

Decode

TAF

TAF PAUN 221726Z 2218/2318 08018G24KT P6SM SKC= TAF PAOM 221726Z 2218/2318 04010KT P6SM SKC FM231400 06010KT P6SM FEW050 SCT100 SCT200

Decode

Departure Runways

ID Width Length Bearing (true/mag) Surface Threshold Overrun Markings Lighting
08 75 ft / 23 m 1,902 ft / 580 m 98.42° / 87.24° ASPHALT 0 ft / 0 m 190 ft / 58 m VISUAL EDGE THRESHOLD
15 150 ft / 46 m 5,906 ft / 1,800 m 164.16° / 152.98° ASPHALT 0 ft / 0 m 0 ft / 0 m PREC-APP EDGE THRESHOLD MALSR
26 75 ft / 23 m 1,902 ft / 580 m 278.43° / 267.25° ASPHALT 0 ft / 0 m 0 ft / 0 m VISUAL EDGE THRESHOLD
33 150 ft / 46 m 5,906 ft / 1,800 m 344.17° / 332.99° ASPHALT 0 ft / 0 m 125 ft / 38 m APP EDGE THRESHOLD REIL-UNI

PAMK

Details ICAO PAMK (SMK)
Name ST MICHAEL
Region USA (Alaska)
Timezone America/Nome (UTC-8.0)
Stats Elevation 93 ft / 28 m (AMSL)
Location 63.490000° -162.110000°
Runways 1
Magnetic Variation 10.591° E

METAR

PAMK 221956Z AUTO 08012KT 10SM CLR 01/M04 A3035 RMK AO2 SLP280 T00061044 FZRANO PNO $

Decode

TAF

Not found

Destination Runways

ID Width Length Bearing (true/mag) Surface Threshold Overrun Markings Lighting
02 75 ft / 23 m 3,991 ft / 1,216 m 32.85° / 22.26° GRAVEL 0 ft / 0 m 299 ft / 91 m VISUAL EDGE THRESHOLD
20 75 ft / 23 m 3,991 ft / 1,216 m 212.87° / 202.28° GRAVEL 0 ft / 0 m 299 ft / 91 m VISUAL EDGE THRESHOLD